Wenona, Maryland
Current Conditions -  °F | °C
As of 4:57 AM on Sunday 23 Nov 2014 (Local Time) from KTGI Reporting Station
Clear Clear  
Wind Chill: 40°   Ceiling: Unl
Heat Index: 46°   Visibility: 10mi
Dew Point: 37°   Wind: 14mph
Humidity: 71%   Direction: 210°SSW
Pressure: 30.26"   Gusts: NA
Location:  38.14°N, 75.95°W
Report Text: KTGI 230957Z AUTO 21012KT 10SM CLR 08/03 A3026 RMK AO1
Loading
Personal Weather Stations






























Interactive Weather Map New forecast layout! Learn more

10-Day Weather Forecast

Advertisements
Track Severe Weather on mobile